sensor_id;sensor_type;location;lat;lon;timestamp;temperature;humidity
48264;DHT22;34086;51.076;13.722;2023-06-22T00:00:44;21.70;99.90
48264;DHT22;34086;51.076;13.722;2023-06-22T00:01:45;21.70;99.90
48264;DHT22;34086;51.076;13.722;2023-06-22T00:02:45;21.70;99.90
48264;DHT22;34086;51.076;13.722;2023-06-22T00:03:46;21.70;99.90
48264;DHT22;34086;51.076;13.722;2023-06-22T00:04:46;21.70;99.90
48264;DHT22;34086;51.076;13.722;2023-06-22T00:05:48;21.70;99.90
48264;DHT22;34086;51.076;13.722;2023-06-22T00:06:48;21.70;99.90
48264;DHT22;34086;51.076;13.722;2023-06-22T00:07:49;21.60;99.90
48264;DHT22;34086;51.076;13.722;2023-06-22T00:08:49;21.60;99.90
48264;DHT22;34086;51.076;13.722;2023-06-22T00:09:50;21.60;99.90
48264;DHT22;34086;51.076;13.722;2023-06-22T00:10:50;21.60;99.90
48264;DHT22;34086;51.076;13.722;2023-06-22T00:11:51;21.60;99.90
48264;DHT22;34086;51.076;13.722;2023-06-22T00:12:51;21.60;99.90
48264;DHT22;34086;51.076;13.722;2023-06-22T00:13:52;21.60;99.90
48264;DHT22;34086;51.076;13.722;2023-06-22T00:14:53;21.60;99.90
48264;DHT22;34086;51.076;13.722;2023-06-22T00:15:53;21.60;99.90
48264;DHT22;34086;51.076;13.722;2023-06-22T00:16:54;21.50;99.90
48264;DHT22;34086;51.076;13.722;2023-06-22T00:17:57;21.50;99.90
48264;DHT22;34086;51.076;13.722;2023-06-22T00:18:59;21.50;99.90
48264;DHT22;34086;51.076;13.722;2023-06-22T00:20:00;21.50;99.90
48264;DHT22;34086;51.076;13.722;2023-06-22T00:21:01;21.50;99.90
48264;DHT22;34086;51.076;13.722;2023-06-22T00:22:02;21.50;99.90
48264;DHT22;34086;51.076;13.722;2023-06-22T00:23:07;21.50;99.90
48264;DHT22;34086;51.076;13.722;2023-06-22T00:24:10;21.50;99.90
48264;DHT22;34086;51.076;13.722;2023-06-22T00:25:11;21.50;99.90
48264;DHT22;34086;51.076;13.722;2023-06-22T00:26:12;21.40;99.90
48264;DHT22;34086;51.076;13.722;2023-06-22T00:27:12;21.40;99.90
48264;DHT22;34086;51.076;13.722;2023-06-22T00:28:13;21.40;99.90
48264;DHT22;34086;51.076;13.722;2023-06-22T00:29:14;21.40;99.90
48264;DHT22;34086;51.076;13.722;2023-06-22T00:30:18;21.30;99.90
48264;DHT22;34086;51.076;13.722;2023-06-22T00:31:19;21.30;99.90
48264;DHT22;34086;51.076;13.722;2023-06-22T00:32:20;21.30;99.90
48264;DHT22;34086;51.076;13.722;2023-06-22T00:33:21;21.30;99.90
48264;DHT22;34086;51.076;13.722;2023-06-22T00:34:22;21.30;99.90
48264;DHT22;34086;51.076;13.722;2023-06-22T00:35:22;21.30;99.90
48264;DHT22;34086;51.076;13.722;2023-06-22T00:36:23;21.30;99.90
48264;DHT22;34086;51.076;13.722;2023-06-22T00:37:25;21.30;99.90
48264;DHT22;34086;51.076;13.722;2023-06-22T00:38:27;21.30;99.90
48264;DHT22;34086;51.076;13.722;2023-06-22T00:39:27;21.30;99.90
48264;DHT22;34086;51.076;13.722;2023-06-22T00:40:31;21.20;99.90
48264;DHT22;34086;51.076;13.722;2023-06-22T00:41:32;21.20;99.90
48264;DHT22;34086;51.076;13.722;2023-06-22T00:42:32;21.20;99.90
48264;DHT22;34086;51.076;13.722;2023-06-22T00:43:33;21.20;99.90
48264;DHT22;34086;51.076;13.722;2023-06-22T00:44:36;21.20;99.90
48264;DHT22;34086;51.076;13.722;2023-06-22T00:45:38;21.20;99.90
48264;DHT22;34086;51.076;13.722;2023-06-22T00:46:39;21.10;99.90
48264;DHT22;34086;51.076;13.722;2023-06-22T00:47:39;21.10;99.90
48264;DHT22;34086;51.076;13.722;2023-06-22T00:48:40;21.10;99.90
48264;DHT22;34086;51.076;13.722;2023-06-22T00:49:44;21.10;99.90
48264;DHT22;34086;51.076;13.722;2023-06-22T00:50:47;21.10;99.90
48264;DHT22;34086;51.076;13.722;2023-06-22T00:51:52;21.10;99.90
48264;DHT22;34086;51.076;13.722;2023-06-22T00:52:56;21.10;99.90
48264;DHT22;34086;51.076;13.722;2023-06-22T00:53:56;21.10;99.90
48264;DHT22;34086;51.076;13.722;2023-06-22T00:54:57;21.10;99.90
48264;DHT22;34086;51.076;13.722;2023-06-22T00:55:58;21.10;99.90
48264;DHT22;34086;51.076;13.722;2023-06-22T00:57:00;21.10;99.90
48264;DHT22;34086;51.076;13.722;2023-06-22T00:58:06;21.10;99.90
48264;DHT22;34086;51.076;13.722;2023-06-22T00:59:10;21.10;99.90
48264;DHT22;34086;51.076;13.722;2023-06-22T01:00:12;21.10;99.90
48264;DHT22;34086;51.076;13.722;2023-06-22T01:01:14;21.00;99.90
48264;DHT22;34086;51.076;13.722;2023-06-22T01:02:15;21.00;99.90
48264;DHT22;34086;51.076;13.722;2023-06-22T01:03:15;21.00;99.90
48264;DHT22;34086;51.076;13.722;2023-06-22T01:04:17;21.00;99.90
48264;DHT22;34086;51.076;13.722;2023-06-22T01:05:20;20.90;99.90
48264;DHT22;34086;51.076;13.722;2023-06-22T01:06:26;20.90;99.90
48264;DHT22;34086;51.076;13.722;2023-06-22T01:07:36;20.90;99.90
48264;DHT22;34086;51.076;13.722;2023-06-22T01:09:19;20.90;99.90
48264;DHT22;34086;51.076;13.722;2023-06-22T01:10:44;20.90;99.90
48264;DHT22;34086;51.076;13.722;2023-06-22T01:11:53;20.80;99.90
48264;DHT22;34086;51.076;13.722;2023-06-22T01:14:26;20.80;99.90
48264;DHT22;34086;51.076;13.722;2023-06-22T01:15:39;20.80;99.90
48264;DHT22;34086;51.076;13.722;2023-06-22T01:16:41;20.80;99.90
48264;DHT22;34086;51.076;13.722;2023-06-22T01:17:44;20.80;99.90
48264;DHT22;34086;51.076;13.722;2023-06-22T01:18:45;20.80;99.90
48264;DHT22;34086;51.076;13.722;2023-06-22T01:19:52;20.80;99.90
48264;DHT22;34086;51.076;13.722;2023-06-22T01:20:57;20.80;99.90
48264;DHT22;34086;51.076;13.722;2023-06-22T01:22:00;20.80;99.90
48264;DHT22;34086;51.076;13.722;2023-06-22T01:23:26;20.70;99.90
48264;DHT22;34086;51.076;13.722;2023-06-22T01:26:07;20.70;99.90
48264;DHT22;34086;51.076;13.722;2023-06-22T01:29:38;20.70;99.90
48264;DHT22;34086;51.076;13.722;2023-06-22T01:30:40;20.70;99.90
48264;DHT22;34086;51.076;13.722;2023-06-22T01:31:42;20.60;99.90
48264;DHT22;34086;51.076;13.722;2023-06-22T01:32:45;20.60;99.90
48264;DHT22;34086;51.076;13.722;2023-06-22T01:33:51;20.60;99.90
48264;DHT22;34086;51.076;13.722;2023-06-22T01:34:53;20.60;99.90
48264;DHT22;34086;51.076;13.722;2023-06-22T01:35:53;20.60;99.90
48264;DHT22;34086;51.076;13.722;2023-06-22T01:36:54;20.60;99.90
48264;DHT22;34086;51.076;13.722;2023-06-22T01:37:55;20.60;99.90
48264;DHT22;34086;51.076;13.722;2023-06-22T01:38:57;20.60;99.90
48264;DHT22;34086;51.076;13.722;2023-06-22T01:39:58;20.60;99.90
48264;DHT22;34086;51.076;13.722;2023-06-22T01:41:00;20.60;99.90
48264;DHT22;34086;51.076;13.722;2023-06-22T01:42:02;20.60;99.90
48264;DHT22;34086;51.076;13.722;2023-06-22T01:43:04;20.60;99.90
48264;DHT22;34086;51.076;13.722;2023-06-22T01:44:06;20.60;99.90
48264;DHT22;34086;51.076;13.722;2023-06-22T01:45:08;20.50;99.90
48264;DHT22;34086;51.076;13.722;2023-06-22T01:46:12;20.50;99.90
48264;DHT22;34086;51.076;13.722;2023-06-22T01:47:13;20.50;99.90
48264;DHT22;34086;51.076;13.722;2023-06-22T01:48:14;20.50;99.90
48264;DHT22;34086;51.076;13.722;2023-06-22T01:49:15;20.50;99.90
48264;DHT22;34086;51.076;13.722;2023-06-22T01:50:16;20.50;99.90
48264;DHT22;34086;51.076;13.722;2023-06-22T01:51:17;20.50;99.90
48264;DHT22;34086;51.076;13.722;2023-06-22T01:52:18;20.50;99.90
48264;DHT22;34086;51.076;13.722;2023-06-22T01:53:23;20.50;99.90
48264;DHT22;34086;51.076;13.722;2023-06-22T01:54:26;20.50;99.90
48264;DHT22;34086;51.076;13.722;2023-06-22T01:55:26;20.50;99.90
48264;DHT22;34086;51.076;13.722;2023-06-22T01:56:27;20.50;99.90
48264;DHT22;34086;51.076;13.722;2023-06-22T01:57:27;20.50;99.90
48264;DHT22;34086;51.076;13.722;2023-06-22T01:58:29;20.50;99.90
48264;DHT22;34086;51.076;13.722;2023-06-22T02:00:10;20.50;99.90
48264;DHT22;34086;51.076;13.722;2023-06-22T02:01:11;20.50;99.90
48264;DHT22;34086;51.076;13.722;2023-06-22T02:02:14;20.50;99.90
48264;DHT22;34086;51.076;13.722;2023-06-22T02:03:22;20.40;99.90
48264;DHT22;34086;51.076;13.722;2023-06-22T02:04:36;20.40;99.90
48264;DHT22;34086;51.076;13.722;2023-06-22T02:05:48;20.40;99.90
48264;DHT22;34086;51.076;13.722;2023-06-22T02:06:52;20.40;99.90
48264;DHT22;34086;51.076;13.722;2023-06-22T02:09:12;20.40;99.90
48264;DHT22;34086;51.076;13.722;2023-06-22T02:10:15;20.40;99.90
48264;DHT22;34086;51.076;13.722;2023-06-22T02:11:19;20.40;99.90
48264;DHT22;34086;51.076;13.722;2023-06-22T02:12:22;20.40;99.90
48264;DHT22;34086;51.076;13.722;2023-06-22T02:13:24;20.40;99.90
48264;DHT22;34086;51.076;13.722;2023-06-22T02:14:26;20.40;99.90
48264;DHT22;34086;51.076;13.722;2023-06-22T02:15:29;20.40;99.90
48264;DHT22;34086;51.076;13.722;2023-06-22T02:16:31;20.30;99.90
48264;DHT22;34086;51.076;13.722;2023-06-22T02:17:33;20.30;99.90
48264;DHT22;34086;51.076;13.722;2023-06-22T02:18:34;20.30;99.90
48264;DHT22;34086;51.076;13.722;2023-06-22T02:19:37;20.30;99.90
48264;DHT22;34086;51.076;13.722;2023-06-22T02:20:38;20.30;99.90
48264;DHT22;34086;51.076;13.722;2023-06-22T02:21:39;20.30;99.90
48264;DHT22;34086;51.076;13.722;2023-06-22T02:22:40;20.30;99.90
48264;DHT22;34086;51.076;13.722;2023-06-22T02:23:41;20.30;99.90
48264;DHT22;34086;51.076;13.722;2023-06-22T02:24:41;20.20;99.90
48264;DHT22;34086;51.076;13.722;2023-06-22T02:25:42;20.20;99.90
48264;DHT22;34086;51.076;13.722;2023-06-22T02:26:44;20.20;99.90
48264;DHT22;34086;51.076;13.722;2023-06-22T02:27:46;20.10;99.90
48264;DHT22;34086;51.076;13.722;2023-06-22T02:28:46;20.10;99.90
48264;DHT22;34086;51.076;13.722;2023-06-22T02:29:47;20.10;99.90
48264;DHT22;34086;51.076;13.722;2023-06-22T02:30:47;20.10;99.90
48264;DHT22;34086;51.076;13.722;2023-06-22T02:31:48;20.10;99.90
48264;DHT22;34086;51.076;13.722;2023-06-22T02:32:49;20.10;99.90
48264;DHT22;34086;51.076;13.722;2023-06-22T02:33:50;20.10;99.90
48264;DHT22;34086;51.076;13.722;2023-06-22T02:34:53;20.10;99.90
48264;DHT22;34086;51.076;13.722;2023-06-22T02:35:54;20.10;99.90
48264;DHT22;34086;51.076;13.722;2023-06-22T02:36:56;20.10;99.90
48264;DHT22;34086;51.076;13.722;2023-06-22T02:37:58;20.10;99.90
48264;DHT22;34086;51.076;13.722;2023-06-22T02:39:00;20.10;99.90
48264;DHT22;34086;51.076;13.722;2023-06-22T02:40:01;20.10;99.90
48264;DHT22;34086;51.076;13.722;2023-06-22T02:41:04;20.10;99.90
48264;DHT22;34086;51.076;13.722;2023-06-22T02:42:05;20.00;99.90
48264;DHT22;34086;51.076;13.722;2023-06-22T02:43:06;20.00;99.90
48264;DHT22;34086;51.076;13.722;2023-06-22T02:44:06;20.00;99.90
48264;DHT22;34086;51.076;13.722;2023-06-22T02:45:07;20.00;99.90
48264;DHT22;34086;51.076;13.722;2023-06-22T02:46:08;20.00;99.90
48264;DHT22;34086;51.076;13.722;2023-06-22T02:47:08;20.00;99.90
48264;DHT22;34086;51.076;13.722;2023-06-22T02:48:10;20.00;99.90
48264;DHT22;34086;51.076;13.722;2023-06-22T02:49:11;20.00;99.90
48264;DHT22;34086;51.076;13.722;2023-06-22T02:50:11;19.90;99.90
48264;DHT22;34086;51.076;13.722;2023-06-22T02:51:12;19.90;99.90
48264;DHT22;34086;51.076;13.722;2023-06-22T02:52:12;19.90;99.90
48264;DHT22;34086;51.076;13.722;2023-06-22T02:53:13;19.90;99.90
48264;DHT22;34086;51.076;13.722;2023-06-22T02:54:18;19.90;99.90
48264;DHT22;34086;51.076;13.722;2023-06-22T02:55:21;19.90;99.90
48264;DHT22;34086;51.076;13.722;2023-06-22T02:56:29;19.90;99.90
48264;DHT22;34086;51.076;13.722;2023-06-22T02:57:33;19.90;99.90
48264;DHT22;34086;51.076;13.722;2023-06-22T02:58:34;19.90;99.90
48264;DHT22;34086;51.076;13.722;2023-06-22T02:59:41;19.90;99.90
48264;DHT22;34086;51.076;13.722;2023-06-22T03:00:46;19.90;99.90
48264;DHT22;34086;51.076;13.722;2023-06-22T03:01:46;19.90;99.90
48264;DHT22;34086;51.076;13.722;2023-06-22T03:02:53;19.90;99.90
48264;DHT22;34086;51.076;13.722;2023-06-22T03:03:54;19.90;99.90
48264;DHT22;34086;51.076;13.722;2023-06-22T03:04:55;19.90;99.90
48264;DHT22;34086;51.076;13.722;2023-06-22T03:05:55;19.90;99.90
48264;DHT22;34086;51.076;13.722;2023-06-22T03:06:57;19.90;99.90
48264;DHT22;34086;51.076;13.722;2023-06-22T03:08:03;20.00;99.90
48264;DHT22;34086;51.076;13.722;2023-06-22T03:09:07;20.00;99.90
48264;DHT22;34086;51.076;13.722;2023-06-22T03:10:09;20.00;99.90
48264;DHT22;34086;51.076;13.722;2023-06-22T03:11:10;19.90;99.90
48264;DHT22;34086;51.076;13.722;2023-06-22T03:12:11;20.00;99.90
48264;DHT22;34086;51.076;13.722;2023-06-22T03:13:20;20.00;99.90
48264;DHT22;34086;51.076;13.722;2023-06-22T03:14:21;20.00;99.90
48264;DHT22;34086;51.076;13.722;2023-06-22T03:15:22;20.00;99.90
48264;DHT22;34086;51.076;13.722;2023-06-22T03:16:23;20.00;99.90
48264;DHT22;34086;51.076;13.722;2023-06-22T03:17:24;20.00;99.90
48264;DHT22;34086;51.076;13.722;2023-06-22T03:18:25;20.00;99.90
48264;DHT22;34086;51.076;13.722;2023-06-22T03:19:26;20.00;99.90
48264;DHT22;34086;51.076;13.722;2023-06-22T03:20:28;20.10;99.90
48264;DHT22;34086;51.076;13.722;2023-06-22T03:21:33;20.00;99.90
48264;DHT22;34086;51.076;13.722;2023-06-22T03:22:35;20.10;99.90
48264;DHT22;34086;51.076;13.722;2023-06-22T03:23:36;20.10;99.90
48264;DHT22;34086;51.076;13.722;2023-06-22T03:24:36;20.10;99.90
48264;DHT22;34086;51.076;13.722;2023-06-22T03:25:40;20.10;99.90
48264;DHT22;34086;51.076;13.722;2023-06-22T03:26:41;20.10;99.90
48264;DHT22;34086;51.076;13.722;2023-06-22T03:27:42;20.10;99.90
48264;DHT22;34086;51.076;13.722;2023-06-22T03:28:44;20.10;99.90
48264;DHT22;34086;51.076;13.722;2023-06-22T03:29:45;20.10;99.90
48264;DHT22;34086;51.076;13.722;2023-06-22T03:30:46;20.10;99.90
48264;DHT22;34086;51.076;13.722;2023-06-22T03:31:47;20.10;99.90
48264;DHT22;34086;51.076;13.722;2023-06-22T03:32:48;20.10;99.90
48264;DHT22;34086;51.076;13.722;2023-06-22T03:33:50;20.10;99.90
48264;DHT22;34086;51.076;13.722;2023-06-22T03:34:50;20.10;99.90
48264;DHT22;34086;51.076;13.722;2023-06-22T03:35:51;20.10;99.90
48264;DHT22;34086;51.076;13.722;2023-06-22T03:36:52;20.10;99.90
48264;DHT22;34086;51.076;13.722;2023-06-22T03:37:52;20.10;99.90
48264;DHT22;34086;51.076;13.722;2023-06-22T03:38:53;20.10;99.90
48264;DHT22;34086;51.076;13.722;2023-06-22T03:39:54;20.10;99.90
48264;DHT22;34086;51.076;13.722;2023-06-22T03:40:54;20.10;99.90
48264;DHT22;34086;51.076;13.722;2023-06-22T03:41:55;20.20;99.90
48264;DHT22;34086;51.076;13.722;2023-06-22T03:42:57;20.20;99.90
48264;DHT22;34086;51.076;13.722;2023-06-22T03:43:58;20.20;99.90
48264;DHT22;34086;51.076;13.722;2023-06-22T03:44:58;20.20;99.90
48264;DHT22;34086;51.076;13.722;2023-06-22T03:46:01;20.30;99.90
48264;DHT22;34086;51.076;13.722;2023-06-22T03:47:03;20.30;99.90
48264;DHT22;34086;51.076;13.722;2023-06-22T03:48:04;20.30;99.90
48264;DHT22;34086;51.076;13.722;2023-06-22T03:49:06;20.30;99.90
48264;DHT22;34086;51.076;13.722;2023-06-22T03:50:06;20.30;99.90
48264;DHT22;34086;51.076;13.722;2023-06-22T03:51:07;20.30;99.90
48264;DHT22;34086;51.076;13.722;2023-06-22T03:52:08;20.30;99.90
48264;DHT22;34086;51.076;13.722;2023-06-22T03:53:08;20.30;99.90
48264;DHT22;34086;51.076;13.722;2023-06-22T03:54:09;20.40;99.90
48264;DHT22;34086;51.076;13.722;2023-06-22T03:55:09;20.40;99.90
48264;DHT22;34086;51.076;13.722;2023-06-22T03:56:10;20.40;99.90
48264;DHT22;34086;51.076;13.722;2023-06-22T03:57:10;20.40;99.90
48264;DHT22;34086;51.076;13.722;2023-06-22T03:58:11;20.50;99.90
48264;DHT22;34086;51.076;13.722;2023-06-22T03:59:12;20.50;99.90
48264;DHT22;34086;51.076;13.722;2023-06-22T04:00:13;20.50;99.90
48264;DHT22;34086;51.076;13.722;2023-06-22T04:01:16;20.60;99.90
48264;DHT22;34086;51.076;13.722;2023-06-22T04:02:17;20.60;99.90
48264;DHT22;34086;51.076;13.722;2023-06-22T04:03:18;20.60;99.90
48264;DHT22;34086;51.076;13.722;2023-06-22T04:04:19;20.70;99.90
48264;DHT22;34086;51.076;13.722;2023-06-22T04:05:20;20.70;99.90
48264;DHT22;34086;51.076;13.722;2023-06-22T04:06:20;20.80;99.90
48264;DHT22;34086;51.076;13.722;2023-06-22T04:07:22;20.80;99.90
48264;DHT22;34086;51.076;13.722;2023-06-22T04:08:23;20.90;99.90
48264;DHT22;34086;51.076;13.722;2023-06-22T04:09:23;21.00;99.90
48264;DHT22;34086;51.076;13.722;2023-06-22T04:10:24;21.10;99.90
48264;DHT22;34086;51.076;13.722;2023-06-22T04:11:25;21.40;99.90
48264;DHT22;34086;51.076;13.722;2023-06-22T04:12:25;21.50;99.90
48264;DHT22;34086;51.076;13.722;2023-06-22T04:13:29;21.70;99.90
48264;DHT22;34086;51.076;13.722;2023-06-22T04:14:30;21.90;99.90
48264;DHT22;34086;51.076;13.722;2023-06-22T04:15:30;22.10;99.90
48264;DHT22;34086;51.076;13.722;2023-06-22T04:16:31;22.20;99.90
48264;DHT22;34086;51.076;13.722;2023-06-22T04:17:31;22.40;99.90
48264;DHT22;34086;51.076;13.722;2023-06-22T04:18:32;22.50;99.90
48264;DHT22;34086;51.076;13.722;2023-06-22T04:19:33;22.60;99.90
48264;DHT22;34086;51.076;13.722;2023-06-22T04:20:33;22.80;99.90
48264;DHT22;34086;51.076;13.722;2023-06-22T04:21:34;22.90;99.90
48264;DHT22;34086;51.076;13.722;2023-06-22T04:22:34;23.10;99.90
48264;DHT22;34086;51.076;13.722;2023-06-22T04:23:35;23.20;99.90
48264;DHT22;34086;51.076;13.722;2023-06-22T04:24:35;23.30;99.90
48264;DHT22;34086;51.076;13.722;2023-06-22T04:25:36;23.50;99.90
48264;DHT22;34086;51.076;13.722;2023-06-22T04:26:36;23.60;99.90
48264;DHT22;34086;51.076;13.722;2023-06-22T04:27:37;23.70;99.90
48264;DHT22;34086;51.076;13.722;2023-06-22T04:28:41;23.80;99.90
48264;DHT22;34086;51.076;13.722;2023-06-22T04:29:42;23.90;99.90
48264;DHT22;34086;51.076;13.722;2023-06-22T04:30:49;23.90;99.90
48264;DHT22;34086;51.076;13.722;2023-06-22T04:31:51;24.00;99.90
48264;DHT22;34086;51.076;13.722;2023-06-22T04:32:51;24.00;99.90
48264;DHT22;34086;51.076;13.722;2023-06-22T04:34:00;24.10;99.90
48264;DHT22;34086;51.076;13.722;2023-06-22T04:35:06;24.20;99.90
48264;DHT22;34086;51.076;13.722;2023-06-22T04:36:07;24.30;99.90
48264;DHT22;34086;51.076;13.722;2023-06-22T04:37:08;24.30;99.90
48264;DHT22;34086;51.076;13.722;2023-06-22T04:38:09;24.30;99.90
48264;DHT22;34086;51.076;13.722;2023-06-22T04:39:10;24.30;99.90
48264;DHT22;34086;51.076;13.722;2023-06-22T04:40:11;24.40;99.90
48264;DHT22;34086;51.076;13.722;2023-06-22T04:41:14;24.40;99.90
48264;DHT22;34086;51.076;13.722;2023-06-22T04:42:26;24.50;99.90
48264;DHT22;34086;51.076;13.722;2023-06-22T04:43:27;24.50;99.90
48264;DHT22;34086;51.076;13.722;2023-06-22T04:44:30;24.50;99.90
48264;DHT22;34086;51.076;13.722;2023-06-22T04:45:31;24.60;99.90
48264;DHT22;34086;51.076;13.722;2023-06-22T04:46:31;24.60;99.90
48264;DHT22;34086;51.076;13.722;2023-06-22T04:47:34;24.60;99.90
48264;DHT22;34086;51.076;13.722;2023-06-22T04:48:34;24.60;99.90
48264;DHT22;34086;51.076;13.722;2023-06-22T04:49:36;24.60;99.90
48264;DHT22;34086;51.076;13.722;2023-06-22T04:50:40;24.60;99.90
48264;DHT22;34086;51.076;13.722;2023-06-22T04:51:42;24.80;99.90
48264;DHT22;34086;51.076;13.722;2023-06-22T04:52:42;25.00;99.90
48264;DHT22;34086;51.076;13.722;2023-06-22T04:53:43;25.10;99.90
48264;DHT22;34086;51.076;13.722;2023-06-22T04:54:43;25.00;99.90
48264;DHT22;34086;51.076;13.722;2023-06-22T04:55:48;24.90;99.90
48264;DHT22;34086;51.076;13.722;2023-06-22T04:56:49;24.90;99.90
48264;DHT22;34086;51.076;13.722;2023-06-22T04:57:56;24.80;99.90
48264;DHT22;34086;51.076;13.722;2023-06-22T04:59:04;24.80;99.90
48264;DHT22;34086;51.076;13.722;2023-06-22T05:00:06;24.90;99.90
48264;DHT22;34086;51.076;13.722;2023-06-22T05:01:13;25.10;99.90
48264;DHT22;34086;51.076;13.722;2023-06-22T05:02:13;25.30;99.90
48264;DHT22;34086;51.076;13.722;2023-06-22T05:03:14;25.30;99.90
48264;DHT22;34086;51.076;13.722;2023-06-22T05:04:18;25.50;99.90
48264;DHT22;34086;51.076;13.722;2023-06-22T05:05:19;25.60;99.90
48264;DHT22;34086;51.076;13.722;2023-06-22T05:06:20;25.80;99.90
48264;DHT22;34086;51.076;13.722;2023-06-22T05:07:20;26.00;99.90
48264;DHT22;34086;51.076;13.722;2023-06-22T05:08:21;26.30;99.90
48264;DHT22;34086;51.076;13.722;2023-06-22T05:09:22;26.40;99.90
48264;DHT22;34086;51.076;13.722;2023-06-22T05:10:22;26.60;99.90
48264;DHT22;34086;51.076;13.722;2023-06-22T05:11:27;26.70;99.90
48264;DHT22;34086;51.076;13.722;2023-06-22T05:12:28;26.90;99.90
48264;DHT22;34086;51.076;13.722;2023-06-22T05:13:29;26.90;99.90
48264;DHT22;34086;51.076;13.722;2023-06-22T05:14:30;26.90;99.90
48264;DHT22;34086;51.076;13.722;2023-06-22T05:15:30;27.00;99.90
48264;DHT22;34086;51.076;13.722;2023-06-22T05:16:37;27.00;99.90
48264;DHT22;34086;51.076;13.722;2023-06-22T05:17:38;26.90;99.90
48264;DHT22;34086;51.076;13.722;2023-06-22T05:18:43;26.90;99.90
48264;DHT22;34086;51.076;13.722;2023-06-22T05:19:44;26.80;99.90
48264;DHT22;34086;51.076;13.722;2023-06-22T05:20:49;26.80;99.90
48264;DHT22;34086;51.076;13.722;2023-06-22T05:21:49;26.70;99.90
48264;DHT22;34086;51.076;13.722;2023-06-22T05:22:50;26.70;99.90
48264;DHT22;34086;51.076;13.722;2023-06-22T05:23:51;26.70;99.90
48264;DHT22;34086;51.076;13.722;2023-06-22T05:24:52;26.60;99.90
48264;DHT22;34086;51.076;13.722;2023-06-22T05:25:52;26.70;99.90
48264;DHT22;34086;51.076;13.722;2023-06-22T05:26:54;26.80;99.90
48264;DHT22;34086;51.076;13.722;2023-06-22T05:27:55;26.80;99.90
48264;DHT22;34086;51.076;13.722;2023-06-22T05:28:56;26.80;99.90
48264;DHT22;34086;51.076;13.722;2023-06-22T05:29:57;26.80;99.90
48264;DHT22;34086;51.076;13.722;2023-06-22T05:30:58;26.80;99.90
48264;DHT22;34086;51.076;13.722;2023-06-22T05:31:59;26.80;99.90
48264;DHT22;34086;51.076;13.722;2023-06-22T05:32:59;27.00;99.90
48264;DHT22;34086;51.076;13.722;2023-06-22T05:34:00;27.20;99.90
48264;DHT22;34086;51.076;13.722;2023-06-22T05:35:01;27.30;99.90
48264;DHT22;34086;51.076;13.722;2023-06-22T05:36:02;27.30;99.90
48264;DHT22;34086;51.076;13.722;2023-06-22T05:37:02;27.30;99.90
48264;DHT22;34086;51.076;13.722;2023-06-22T05:38:03;27.40;99.90
48264;DHT22;34086;51.076;13.722;2023-06-22T05:39:14;27.50;99.90
48264;DHT22;34086;51.076;13.722;2023-06-22T05:40:15;27.70;99.90
48264;DHT22;34086;51.076;13.722;2023-06-22T05:41:15;27.90;99.90
48264;DHT22;34086;51.076;13.722;2023-06-22T05:42:16;28.00;99.90
48264;DHT22;34086;51.076;13.722;2023-06-22T05:43:16;28.00;99.90
48264;DHT22;34086;51.076;13.722;2023-06-22T05:44:18;28.20;99.90
48264;DHT22;34086;51.076;13.722;2023-06-22T05:45:18;28.20;99.90
48264;DHT22;34086;51.076;13.722;2023-06-22T05:46:19;28.30;99.90
48264;DHT22;34086;51.076;13.722;2023-06-22T05:47:20;28.40;99.90
48264;DHT22;34086;51.076;13.722;2023-06-22T05:48:20;28.40;99.90
48264;DHT22;34086;51.076;13.722;2023-06-22T05:49:21;28.50;99.70
48264;DHT22;34086;51.076;13.722;2023-06-22T05:50:22;28.50;99.40
48264;DHT22;34086;51.076;13.722;2023-06-22T05:51:23;28.50;99.10
48264;DHT22;34086;51.076;13.722;2023-06-22T05:52:23;28.40;98.60
48264;DHT22;34086;51.076;13.722;2023-06-22T05:53:24;28.30;98.50
48264;DHT22;34086;51.076;13.722;2023-06-22T05:54:25;28.30;98.50
48264;DHT22;34086;51.076;13.722;2023-06-22T05:55:25;28.30;98.80
48264;DHT22;34086;51.076;13.722;2023-06-22T05:56:26;28.30;98.70
48264;DHT22;34086;51.076;13.722;2023-06-22T05:57:26;28.30;98.40
48264;DHT22;34086;51.076;13.722;2023-06-22T05:58:27;28.20;98.00
48264;DHT22;34086;51.076;13.722;2023-06-22T05:59:27;28.30;98.20
48264;DHT22;34086;51.076;13.722;2023-06-22T06:00:28;28.30;98.60
48264;DHT22;34086;51.076;13.722;2023-06-22T06:01:28;28.20;98.80
48264;DHT22;34086;51.076;13.722;2023-06-22T06:02:31;28.20;98.80
48264;DHT22;34086;51.076;13.722;2023-06-22T06:03:31;28.30;98.90
48264;DHT22;34086;51.076;13.722;2023-06-22T06:04:32;28.30;98.60
48264;DHT22;34086;51.076;13.722;2023-06-22T06:05:34;28.40;98.50
48264;DHT22;34086;51.076;13.722;2023-06-22T06:06:34;28.50;97.70
48264;DHT22;34086;51.076;13.722;2023-06-22T06:07:37;28.70;97.30
48264;DHT22;34086;51.076;13.722;2023-06-22T06:08:38;28.80;96.80
48264;DHT22;34086;51.076;13.722;2023-06-22T06:09:39;28.80;96.50
48264;DHT22;34086;51.076;13.722;2023-06-22T06:10:39;28.90;96.20
48264;DHT22;34086;51.076;13.722;2023-06-22T06:11:40;29.00;96.00
48264;DHT22;34086;51.076;13.722;2023-06-22T06:12:41;29.00;96.00
48264;DHT22;34086;51.076;13.722;2023-06-22T06:13:41;28.90;95.50
48264;DHT22;34086;51.076;13.722;2023-06-22T06:14:42;28.60;95.60
48264;DHT22;34086;51.076;13.722;2023-06-22T06:15:42;28.40;95.90
48264;DHT22;34086;51.076;13.722;2023-06-22T06:16:43;28.40;96.30
48264;DHT22;34086;51.076;13.722;2023-06-22T06:17:52;28.40;96.50
48264;DHT22;34086;51.076;13.722;2023-06-22T06:18:53;28.40;96.50
48264;DHT22;34086;51.076;13.722;2023-06-22T06:19:56;28.50;96.50
48264;DHT22;34086;51.076;13.722;2023-06-22T06:20:56;28.40;96.90
48264;DHT22;34086;51.076;13.722;2023-06-22T06:21:57;28.30;96.90
48264;DHT22;34086;51.076;13.722;2023-06-22T06:22:58;28.30;97.00
48264;DHT22;34086;51.076;13.722;2023-06-22T06:23:58;28.40;96.80
48264;DHT22;34086;51.076;13.722;2023-06-22T06:24:59;28.60;96.50
48264;DHT22;34086;51.076;13.722;2023-06-22T06:25:59;28.90;95.60
48264;DHT22;34086;51.076;13.722;2023-06-22T06:27:00;29.10;94.70
48264;DHT22;34086;51.076;13.722;2023-06-22T06:28:00;29.10;94.40
48264;DHT22;34086;51.076;13.722;2023-06-22T06:29:01;29.00;94.30
48264;DHT22;34086;51.076;13.722;2023-06-22T06:30:02;28.70;94.50
48264;DHT22;34086;51.076;13.722;2023-06-22T06:31:03;28.40;95.00
48264;DHT22;34086;51.076;13.722;2023-06-22T06:32:07;28.10;95.40
48264;DHT22;34086;51.076;13.722;2023-06-22T06:33:09;27.80;96.20